Time;durP1;ratioP1;P1;durP2;ratioP2;P2;SDS_P1;SDS_P2;PMS_P1;PMS_P2;Temp;Humidity;BMP_temperature;BMP_pressure;BME280_temperature;BME280_humidity;BME280_pressure;Samples;Min_cycle;Max_cycle;Signal;HPM_P1;HPM_P2
2022/04/30 00:00:08;;;;;;;15.60;8.32;;;7.60;99.90;;;;;;5141534;27;20050;-69
2022/04/30 00:02:34;;;;;;;11.30;7.78;;;7.60;99.90;;;;;;5120966;27;20035;-70
2022/04/30 00:05:00;;;;;;;12.30;7.93;;;7.50;99.90;;;;;;5137819;27;20202;-69
2022/04/30 00:07:26;;;;;;;11.38;7.97;;;7.70;99.90;;;;;;5152380;27;20098;-69
2022/04/30 00:09:55;;;;;;;12.45;7.55;;;7.70;99.90;;;;;;5124794;27;20051;-69
2022/04/30 00:12:21;;;;;;;13.52;8.02;;;7.70;99.90;;;;;;5088254;28;20051;-68
2022/04/30 00:14:47;;;;;;;13.30;7.82;;;7.80;99.90;;;;;;5116565;27;20114;-69
2022/04/30 00:17:14;;;;;;;17.20;8.80;;;8.00;99.90;;;;;;5106957;27;20023;-69
2022/04/30 00:19:40;;;;;;;14.90;8.02;;;7.90;99.90;;;;;;5123561;27;20080;-69
2022/04/30 00:22:06;;;;;;;11.70;8.10;;;8.00;99.90;;;;;;5130618;27;20172;-69
2022/04/30 00:24:31;;;;;;;16.75;8.38;;;7.90;99.90;;;;;;5121038;27;20023;-69
2022/04/30 00:26:59;;;;;;;11.43;7.43;;;8.00;99.90;;;;;;5107955;27;20058;-70
2022/04/30 00:29:27;;;;;;;12.38;7.82;;;8.00;99.90;;;;;;5140265;27;20038;-69
2022/04/30 00:32:21;;;;;;;13.10;8.13;;;7.90;99.90;;;;;;5118728;27;20326;-71
2022/04/30 00:35:06;;;;;;;;;;;;;;;;;;;;;
2022/04/30 00:37:53;;;;;;;15.63;7.63;;;8.40;99.90;;;;;;5130041;27;20349;-69
2022/04/30 00:43:07;;;;;;;12.77;7.65;;;7.90;99.90;;;;;;5115134;27;20096;-69
2022/04/30 00:45:36;;;;;;;12.77;7.32;;;8.00;99.90;;;;;;5134194;27;20027;-69
2022/04/30 00:48:02;;;;;;;10.68;7.60;;;8.40;99.90;;;;;;5103851;27;20023;-69
2022/04/30 00:50:34;;;;;;;13.13;6.85;;;7.90;99.90;;;;;;5091027;27;20027;-69
2022/04/30 00:53:09;;;;;;;11.68;7.60;;;8.50;99.90;;;;;;5111984;27;20024;-69
2022/04/30 00:55:44;;;;;;;14.02;7.55;;;7.80;99.90;;;;;;5120388;27;20023;-69
2022/04/30 00:58:16;;;;;;;12.00;7.63;;;7.80;99.90;;;;;;5129037;28;20035;-69
2022/04/30 01:00:43;;;;;;;12.88;7.05;;;7.10;99.90;;;;;;5129150;27;20039;-69
2022/04/30 01:03:09;;;;;;;9.38;6.90;;;7.90;99.90;;;;;;5144047;27;20183;-69
2022/04/30 01:05:34;;;;;;;12.18;6.78;;;7.90;99.90;;;;;;5126101;27;20058;-69
2022/04/30 01:08:03;;;;;;;11.00;6.55;;;8.00;99.90;;;;;;5101200;28;20349;-68
2022/04/30 01:10:29;;;;;;;11.73;7.32;;;7.90;99.90;;;;;;5116324;27;20063;-68
2022/04/30 01:12:56;;;;;;;12.25;7.05;;;7.80;99.90;;;;;;5115725;27;20264;-68
2022/04/30 01:15:34;;;;;;;9.93;6.78;;;7.90;99.90;;;;;;5114118;27;20044;-68
2022/04/30 01:18:14;;;;;;;10.85;7.15;;;7.90;99.90;;;;;;5139991;27;20023;-69
2022/04/30 01:20:46;;;;;;;9.50;7.15;;;7.80;99.90;;;;;;5122950;27;20038;-69
2022/04/30 01:23:16;;;;;;;11.88;5.63;;;8.00;99.90;;;;;;5119143;27;20038;-69
2022/04/30 01:25:44;;;;;;;11.95;6.80;;;7.90;99.90;;;;;;5135681;27;20035;-69
2022/04/30 01:28:12;;;;;;;9.45;5.93;;;7.90;99.90;;;;;;5108359;28;20082;-68
2022/04/30 01:30:49;;;;;;;9.75;7.13;;;7.90;99.90;;;;;;5106561;28;20027;-69
2022/04/30 01:38:43;;;;;;;11.75;6.68;;;7.60;99.90;;;;;;5126224;27;20044;-68
2022/04/30 01:41:08;;;;;;;8.68;6.80;;;7.70;99.90;;;;;;5109730;28;20030;-68
2022/04/30 01:43:35;;;;;;;13.23;6.60;;;7.70;99.90;;;;;;5095861;28;20065;-68
2022/04/30 01:46:03;;;;;;;10.05;6.82;;;7.70;99.90;;;;;;5118588;27;20034;-68
2022/04/30 01:48:29;;;;;;;9.30;6.47;;;7.70;99.90;;;;;;5120962;27;20305;-68
2022/04/30 01:50:56;;;;;;;10.57;6.38;;;7.90;99.90;;;;;;5132636;27;20031;-69
2022/04/30 01:53:24;;;;;;;9.68;6.38;;;7.90;99.90;;;;;;5107717;27;20030;-68
2022/04/30 01:55:51;;;;;;;9.75;6.38;;;8.00;99.90;;;;;;5123485;27;20077;-68
2022/04/30 01:58:16;;;;;;;9.68;6.70;;;8.00;99.90;;;;;;5110692;28;20032;-68
2022/04/30 02:00:43;;;;;;;11.65;7.32;;;8.10;99.90;;;;;;5113675;27;20029;-69
2022/04/30 02:03:10;;;;;;;11.15;6.30;;;8.20;99.90;;;;;;5131866;27;20028;-68
2022/04/30 02:05:39;;;;;;;10.07;6.55;;;8.20;99.90;;;;;;5124312;27;20050;-68
2022/04/30 02:08:08;;;;;;;12.65;6.85;;;8.30;99.90;;;;;;5139261;27;20038;-68
2022/04/30 02:10:40;;;;;;;8.90;6.38;;;8.30;99.90;;;;;;5121742;27;20024;-68
2022/04/30 02:13:11;;;;;;;10.02;6.60;;;8.40;99.90;;;;;;5113358;27;20074;-69
2022/04/30 02:15:39;;;;;;;9.88;6.40;;;8.30;99.90;;;;;;5125530;27;20027;-69
2022/04/30 02:18:06;;;;;;;9.48;6.30;;;8.40;99.90;;;;;;5125057;27;20035;-69
2022/04/30 02:20:34;;;;;;;11.25;6.50;;;8.30;99.90;;;;;;5106100;27;20201;-69
2022/04/30 02:23:05;;;;;;;11.02;6.07;;;8.30;99.90;;;;;;5137074;27;20072;-69
2022/04/30 02:25:31;;;;;;;10.60;6.70;;;8.10;99.90;;;;;;5137110;27;20079;-69
2022/04/30 02:27:59;;;;;;;11.27;6.50;;;8.20;99.90;;;;;;5110579;28;20385;-69
2022/04/30 02:30:27;;;;;;;11.95;6.57;;;8.20;99.90;;;;;;5141577;27;20034;-70
2022/04/30 02:33:12;;;;;;;10.82;6.82;;;8.30;99.90;;;;;;5125607;27;20090;-69
2022/04/30 02:35:39;;;;;;;;;;;8.20;99.90;;;;;;5134961;27;20080;-69
2022/04/30 02:38:08;;;;;;;9.20;5.32;;;8.20;99.90;;;;;;5105384;28;19918;-69
2022/04/30 02:40:35;;;;;;;9.07;5.85;;;8.30;99.90;;;;;;5140522;27;20038;-69
2022/04/30 02:43:09;;;;;;;10.00;6.53;;;8.30;99.90;;;;;;5142479;27;20053;-69
2022/04/30 02:45:39;;;;;;;10.48;6.28;;;8.30;99.90;;;;;;5103167;28;20070;-70
2022/04/30 02:48:07;;;;;;;9.57;6.60;;;8.20;99.90;;;;;;5127576;27;20100;-71
2022/04/30 02:50:36;;;;;;;14.13;7.30;;;8.20;99.90;;;;;;5107296;27;20059;-70
2022/04/30 02:53:03;;;;;;;13.70;6.95;;;8.30;99.90;;;;;;5142377;27;20214;-70
2022/04/30 02:55:29;;;;;;;9.00;6.28;;;8.20;99.90;;;;;;5115289;27;20035;-70
2022/04/30 03:00:49;;;;;;;8.68;6.07;;;8.10;99.90;;;;;;5140585;27;20314;-69
2022/04/30 03:03:15;;;;;;;;;;;8.10;99.90;;;;;;5120843;27;20234;-69
2022/04/30 03:05:43;;;;;;;9.98;5.10;;;8.00;99.90;;;;;;5132220;27;19918;-69
2022/04/30 03:08:12;;;;;;;10.02;6.10;;;8.10;99.90;;;;;;5142382;27;20121;-69
2022/04/30 03:10:45;;;;;;;10.45;6.30;;;8.10;99.90;;;;;;5130911;27;20220;-69
2022/04/30 03:13:13;;;;;;;9.65;5.82;;;8.20;99.90;;;;;;5148293;27;20052;-69
2022/04/30 03:15:43;;;;;;;9.20;6.45;;;8.20;99.90;;;;;;5121162;27;20038;-69
2022/04/30 03:23:39;;;;;;;8.18;6.53;;;8.30;99.90;;;;;;5116443;27;20065;-69
2022/04/30 03:26:09;;;;;;;9.20;6.68;;;8.10;99.90;;;;;;5140030;27;20058;-68
2022/04/30 03:28:37;;;;;;;8.52;6.22;;;8.10;99.90;;;;;;5107958;27;20034;-69
2022/04/30 03:31:07;;;;;;;10.45;6.72;;;8.10;99.90;;;;;;5095434;27;20039;-69
2022/04/30 03:33:33;;;;;;;10.35;6.75;;;8.10;99.90;;;;;;5121393;27;20039;-69
2022/04/30 03:35:58;;;;;;;8.73;6.25;;;8.20;99.90;;;;;;5105311;28;20034;-69
2022/04/30 03:38:24;;;;;;;12.05;6.55;;;8.20;99.90;;;;;;5125184;27;20031;-69
2022/04/30 03:40:50;;;;;;;8.85;5.80;;;8.20;99.90;;;;;;5140958;27;20027;-69
2022/04/30 03:43:31;;;;;;;9.38;6.40;;;8.20;99.90;;;;;;5120184;28;20031;-69
2022/04/30 03:49:36;;;;;;;;;;;8.20;99.90;;;;;;5139103;27;20069;-70
2022/04/30 03:52:09;;;;;;;10.55;6.43;;;8.20;99.90;;;;;;5117705;27;19946;-70
2022/04/30 03:54:35;;;;;;;10.82;6.82;;;8.30;99.90;;;;;;5133583;27;20076;-70
2022/04/30 03:57:00;;;;;;;7.70;5.82;;;8.10;99.90;;;;;;5117645;27;20031;-69
2022/04/30 03:59:26;;;;;;;6.95;4.93;;;8.10;99.90;;;;;;5132363;27;20043;-69
2022/04/30 04:01:52;;;;;;;12.48;6.18;;;8.50;99.90;;;;;;5141950;27;20019;-69
2022/04/30 04:04:17;;;;;;;9.27;5.97;;;8.10;99.90;;;;;;5140263;27;20035;-69
2022/04/30 04:06:43;;;;;;;9.43;6.40;;;8.10;99.90;;;;;;5133160;27;20314;-69
2022/04/30 04:09:09;;;;;;;9.35;7.22;;;8.00;99.90;;;;;;5115437;27;20034;-69
2022/04/30 04:11:35;;;;;;;12.05;6.50;;;8.10;99.90;;;;;;5104965;27;20307;-71
2022/04/30 04:19:30;;;;;;;9.63;6.60;;;8.20;99.90;;;;;;5139911;27;20058;-68
2022/04/30 04:21:56;;;;;;;8.65;6.07;;;8.20;99.90;;;;;;5123401;27;20097;-67
2022/04/30 04:27:06;;;;;;;7.05;5.80;;;8.20;99.90;;;;;;5127734;27;20051;-68
2022/04/30 04:29:32;;;;;;;10.40;7.25;;;8.20;99.90;;;;;;5155669;27;20188;-68
2022/04/30 04:31:58;;;;;;;9.93;6.88;;;8.50;99.90;;;;;;5107318;27;20023;-70
2022/04/30 04:34:24;;;;;;;12.40;6.68;;;8.40;99.90;;;;;;5140029;27;20035;-69
2022/04/30 04:36:50;;;;;;;14.43;7.18;;;8.60;99.90;;;;;;5135811;27;20191;-69
2022/04/30 04:39:18;;;;;;;9.02;6.72;;;8.50;99.90;;;;;;5104733;27;20107;-68
2022/04/30 04:41:47;;;;;;;9.27;6.80;;;8.50;99.90;;;;;;5135984;27;20085;-69
2022/04/30 04:44:13;;;;;;;9.43;6.70;;;8.60;99.90;;;;;;5118444;27;20098;-69
2022/04/30 04:46:39;;;;;;;9.60;6.50;;;8.60;99.90;;;;;;5104317;27;20032;-70
2022/04/30 04:49:06;;;;;;;10.57;6.78;;;8.80;99.90;;;;;;5132336;27;20206;-69
2022/04/30 04:51:39;;;;;;;9.45;6.15;;;8.70;99.90;;;;;;5119895;27;20035;-70
2022/04/30 04:54:05;;;;;;;9.32;6.43;;;8.70;99.90;;;;;;5131722;27;20035;-68
2022/04/30 04:56:31;;;;;;;10.65;6.68;;;8.90;99.90;;;;;;5125732;28;20301;-69
2022/04/30 04:58:58;;;;;;;11.20;6.20;;;8.80;99.90;;;;;;5107712;28;20032;-68
2022/04/30 05:01:24;;;;;;;9.70;6.30;;;8.90;99.90;;;;;;5112759;27;20058;-70
2022/04/30 05:03:50;;;;;;;8.23;6.25;;;9.10;99.90;;;;;;5137521;28;20043;-69
2022/04/30 05:06:19;;;;;;;10.23;6.28;;;9.00;99.90;;;;;;5094538;28;20023;-70
2022/04/30 05:08:45;;;;;;;8.70;6.57;;;9.10;99.90;;;;;;5124257;28;20038;-70
2022/04/30 05:11:11;;;;;;;8.70;6.20;;;9.10;99.90;;;;;;5102043;28;20270;-69
2022/04/30 05:13:36;;;;;;;10.35;6.80;;;9.20;99.90;;;;;;5138107;27;20051;-70
2022/04/30 05:16:02;;;;;;;9.73;5.82;;;9.20;99.90;;;;;;5133030;27;20103;-70
2022/04/30 05:18:28;;;;;;;10.43;6.05;;;9.30;99.90;;;;;;5103919;28;20244;-69
2022/04/30 05:20:53;;;;;;;10.50;6.75;;;9.50;99.90;;;;;;5154837;27;20047;-70
2022/04/30 05:23:19;;;;;;;8.77;6.47;;;9.50;99.90;;;;;;5132953;27;20195;-68
2022/04/30 05:25:45;;;;;;;9.80;6.88;;;9.60;99.90;;;;;;5154403;27;21080;-69
2022/04/30 05:28:27;;;;;;;8.32;7.15;;;9.60;99.90;;;;;;5123053;28;20437;-70
2022/04/30 05:30:55;;;;;;;9.30;6.68;;;9.70;99.90;;;;;;5121180;28;20032;-69
2022/04/30 05:33:22;;;;;;;9.90;6.78;;;9.70;99.90;;;;;;5097852;28;20039;-68
2022/04/30 05:35:47;;;;;;;12.73;6.55;;;9.90;99.90;;;;;;5108579;27;20316;-69
2022/04/30 05:38:13;;;;;;;9.80;6.45;;;9.90;99.90;;;;;;5139686;28;20031;-69
2022/04/30 05:40:39;;;;;;;10.80;6.93;;;9.90;99.90;;;;;;5136222;27;20028;-69
2022/04/30 05:43:05;;;;;;;8.63;6.35;;;9.90;99.90;;;;;;5130196;27;20023;-69
2022/04/30 05:45:31;;;;;;;8.93;6.63;;;10.00;99.90;;;;;;5103427;28;20042;-69
2022/04/30 05:47:56;;;;;;;12.90;6.25;;;10.00;99.90;;;;;;5101986;28;20020;-69
2022/04/30 05:50:22;;;;;;;8.40;6.05;;;10.10;99.90;;;;;;5111830;28;20111;-68
2022/04/30 05:52:48;;;;;;;9.70;6.13;;;10.10;99.90;;;;;;5136970;27;20043;-69
2022/04/30 05:55:14;;;;;;;11.15;6.60;;;10.00;99.90;;;;;;5132355;27;20030;-69
2022/04/30 05:57:41;;;;;;;10.80;5.75;;;10.30;99.90;;;;;;5136831;27;20042;-69
2022/04/30 06:00:19;;;;;;;8.38;6.53;;;10.30;99.90;;;;;;5124609;28;20322;-69
2022/04/30 06:02:45;;;;;;;7.85;5.82;;;10.20;99.90;;;;;;5102258;28;20032;-69
2022/04/30 06:05:14;;;;;;;11.70;5.80;;;10.30;99.90;;;;;;5106853;27;20028;-68
2022/04/30 06:07:39;;;;;;;9.75;5.95;;;10.50;99.90;;;;;;5103429;27;20031;-68
2022/04/30 06:10:05;;;;;;;8.27;5.43;;;10.50;99.90;;;;;;5139860;27;20364;-69
2022/04/30 06:12:33;;;;;;;7.13;4.97;;;10.60;99.90;;;;;;5114169;27;20067;-70
2022/04/30 06:14:59;;;;;;;7.30;5.57;;;10.50;99.90;;;;;;5109696;27;20365;-70
2022/04/30 06:17:24;;;;;;;6.93;5.00;;;10.50;99.90;;;;;;5130588;27;20043;-68
2022/04/30 06:19:50;;;;;;;7.10;4.70;;;10.60;99.90;;;;;;5102525;27;20222;-69
2022/04/30 06:22:16;;;;;;;8.43;5.13;;;10.40;99.90;;;;;;5112763;28;20020;-69
2022/04/30 06:24:41;;;;;;;14.27;5.18;;;10.40;99.90;;;;;;5125340;27;20039;-68
2022/04/30 06:27:08;;;;;;;6.38;5.00;;;10.40;99.90;;;;;;5125350;27;20019;-68
2022/04/30 06:29:34;;;;;;;6.30;4.65;;;10.50;99.90;;;;;;5122606;27;20039;-69
2022/04/30 06:31:59;;;;;;;6.20;4.75;;;10.40;99.90;;;;;;5137680;27;20036;-69
2022/04/30 06:34:25;;;;;;;8.55;5.28;;;10.60;99.90;;;;;;5113608;27;20031;-71
2022/04/30 06:36:51;;;;;;;6.03;5.40;;;10.40;99.90;;;;;;5125206;27;20360;-70
2022/04/30 06:39:16;;;;;;;7.80;5.20;;;10.30;99.90;;;;;;5108030;27;20103;-67
2022/04/30 06:41:42;;;;;;;12.40;5.90;;;10.50;99.90;;;;;;5101072;27;20027;-69
2022/04/30 06:44:11;;;;;;;7.90;5.10;;;10.40;99.90;;;;;;5086600;27;20039;-68
2022/04/30 06:46:39;;;;;;;6.95;5.32;;;10.30;99.90;;;;;;5113955;27;20030;-68
2022/04/30 06:49:05;;;;;;;7.00;5.50;;;10.40;99.90;;;;;;5122683;27;20314;-70
2022/04/30 06:51:31;;;;;;;9.60;5.22;;;10.30;99.90;;;;;;5128406;27;20066;-71
2022/04/30 06:59:31;;;;;;;9.77;5.72;;;10.20;99.90;;;;;;5127818;27;20111;-68
2022/04/30 07:02:05;;;;;;;7.03;5.22;;;10.30;99.90;;;;;;5126415;27;20042;-69
2022/04/30 07:04:32;;;;;;;9.32;5.40;;;10.30;99.90;;;;;;5127358;27;20030;-68
2022/04/30 07:06:58;;;;;;;7.13;5.78;;;10.10;99.90;;;;;;5126384;27;20027;-69
2022/04/30 07:09:25;;;;;;;11.73;5.15;;;10.30;99.90;;;;;;5126062;27;20041;-69
2022/04/30 07:11:51;;;;;;;7.85;5.65;;;10.20;99.90;;;;;;5107566;27;20066;-70
2022/04/30 07:14:17;;;;;;;7.65;5.43;;;10.30;99.90;;;;;;5124829;27;20337;-70
2022/04/30 07:16:42;;;;;;;7.78;5.35;;;10.20;99.90;;;;;;5141758;27;20046;-69
2022/04/30 07:19:08;;;;;;;8.00;5.40;;;10.20;99.90;;;;;;5142137;27;20038;-69
2022/04/30 07:21:34;;;;;;;8.60;5.50;;;10.20;99.90;;;;;;5120364;27;20375;-69
2022/04/30 07:24:00;;;;;;;7.45;4.90;;;10.30;99.90;;;;;;5144250;27;20030;-70
2022/04/30 07:26:29;;;;;;;9.50;5.55;;;10.40;99.90;;;;;;5124082;27;20031;-70
2022/04/30 07:28:55;;;;;;;6.68;5.32;;;10.40;99.90;;;;;;5123334;27;20301;-70
2022/04/30 07:31:21;;;;;;;7.05;5.10;;;10.30;99.90;;;;;;5145236;27;20068;-70
2022/04/30 07:33:49;;;;;;;10.77;5.30;;;10.30;99.90;;;;;;5122047;27;20035;-69
2022/04/30 07:36:44;;;;;;;8.13;5.32;;;10.60;99.90;;;;;;5116207;27;20060;-69
2022/04/30 07:39:17;;;;;;;14.45;6.72;;;10.30;99.90;;;;;;5139512;27;20043;-70
2022/04/30 07:41:43;;;;;;;6.70;5.18;;;10.40;99.90;;;;;;5140229;27;20554;-71
2022/04/30 07:44:19;;;;;;;9.10;5.80;;;10.50;99.90;;;;;;5103989;28;20028;-70
2022/04/30 07:46:58;;;;;;;11.13;5.72;;;10.50;99.90;;;;;;5111516;27;20035;-70
2022/04/30 07:49:28;;;;;;;7.88;6.00;;;10.40;99.90;;;;;;5105487;28;20125;-69
2022/04/30 07:51:57;;;;;;;7.60;5.03;;;10.40;99.90;;;;;;5091804;28;20086;-69
2022/04/30 07:54:24;;;;;;;8.40;5.68;;;10.60;99.90;;;;;;5124339;27;20218;-69
2022/04/30 07:56:57;;;;;;;8.00;5.38;;;10.50;99.90;;;;;;5120285;27;20314;-69
2022/04/30 07:59:23;;;;;;;6.22;5.13;;;10.60;99.90;;;;;;5129542;27;20215;-70
2022/04/30 08:01:50;;;;;;;6.38;5.28;;;10.50;99.90;;;;;;5125769;27;20305;-69
2022/04/30 08:04:16;;;;;;;12.40;5.43;;;10.70;99.90;;;;;;5124444;27;20142;-70
2022/04/30 08:06:42;;;;;;;8.68;5.60;;;10.50;99.90;;;;;;5111343;27;20203;-69
2022/04/30 08:09:08;;;;;;;6.22;4.63;;;10.70;99.90;;;;;;5123439;27;20038;-70
2022/04/30 08:11:33;;;;;;;8.07;5.50;;;10.80;99.90;;;;;;5117856;27;20122;-70
2022/04/30 08:13:59;;;;;;;9.45;5.80;;;10.90;99.90;;;;;;5106092;27;20035;-71
2022/04/30 08:17:01;;;;;;;;;;;;;;;;;;;;;
2022/04/30 08:20:03;;;;;;;7.80;5.43;;;10.60;99.90;;;;;;5091843;27;20052;-69
2022/04/30 08:22:34;;;;;;;7.30;5.10;;;10.60;99.90;;;;;;5088663;28;20044;-70
2022/04/30 08:25:40;;;;;;;5.53;4.80;;;10.60;99.90;;;;;;5098998;27;20041;-70
2022/04/30 08:28:33;;;;;;;9.70;4.85;;;10.50;99.90;;;;;;5002500;27;20407;-69
2022/04/30 08:30:59;;;;;;;6.53;4.82;;;10.80;99.90;;;;;;5118188;27;20031;-71
2022/04/30 08:33:25;;;;;;;10.30;5.15;;;10.80;99.90;;;;;;5118125;28;20035;-70
2022/04/30 08:35:51;;;;;;;7.47;5.15;;;10.90;99.90;;;;;;5131747;27;20040;-70
2022/04/30 08:38:16;;;;;;;6.80;4.82;;;10.80;99.90;;;;;;5085668;27;20051;-69
2022/04/30 08:40:43;;;;;;;8.30;5.47;;;10.90;99.90;;;;;;5098687;28;20217;-69
2022/04/30 08:43:11;;;;;;;9.05;5.00;;;10.90;99.90;;;;;;5098887;28;20039;-69
2022/04/30 08:45:39;;;;;;;7.15;4.32;;;11.00;99.90;;;;;;5117114;27;20035;-70
2022/04/30 08:48:11;;;;;;;8.75;5.15;;;10.80;99.90;;;;;;5116089;28;20039;-71
2022/04/30 08:50:39;;;;;;;10.65;5.63;;;10.80;99.90;;;;;;5117481;27;20073;-70
2022/04/30 08:53:06;;;;;;;6.82;4.57;;;10.90;99.90;;;;;;5121610;27;20047;-69
2022/04/30 08:55:31;;;;;;;6.05;5.20;;;11.00;99.90;;;;;;5113896;28;20266;-69
2022/04/30 08:58:04;;;;;;;6.70;5.03;;;11.00;99.90;;;;;;5081536;28;20043;-71
2022/04/30 09:00:48;;;;;;;8.55;5.40;;;11.10;99.90;;;;;;5121063;28;20114;-68
2022/04/30 09:03:15;;;;;;;7.20;4.72;;;11.00;99.90;;;;;;5126101;27;20040;-68
2022/04/30 09:06:10;;;;;;;7.78;4.35;;;10.80;99.90;;;;;;5097816;28;20036;-68
2022/04/30 09:08:48;;;;;;;13.98;5.97;;;10.50;99.90;;;;;;5094892;28;20107;-69
2022/04/30 09:11:19;;;;;;;9.90;5.80;;;10.50;99.90;;;;;;5107137;27;20143;-70
2022/04/30 09:13:49;;;;;;;6.85;5.20;;;10.40;99.90;;;;;;5098161;28;20047;-68
2022/04/30 09:19:56;;;;;;;10.07;6.18;;;10.10;99.90;;;;;;5129241;28;20047;-69
2022/04/30 09:22:33;;;;;;;10.10;6.10;;;10.00;99.90;;;;;;5123350;27;20058;-70
2022/04/30 09:25:04;;;;;;;8.68;5.70;;;10.00;99.90;;;;;;5140212;27;20062;-69
2022/04/30 09:27:31;;;;;;;9.20;6.13;;;10.00;99.90;;;;;;5131526;27;20035;-69
2022/04/30 09:29:58;;;;;;;8.27;5.90;;;10.00;99.90;;;;;;5138780;27;20102;-68
2022/04/30 09:32:28;;;;;;;7.90;5.60;;;10.00;99.90;;;;;;5127196;27;20039;-69
2022/04/30 09:37:41;;;;;;;7.90;5.90;;;10.00;99.90;;;;;;5117800;27;20043;-68
2022/04/30 09:40:21;;;;;;;10.30;6.00;;;9.90;99.90;;;;;;5138128;27;20269;-68
2022/04/30 09:42:47;;;;;;;8.70;5.80;;;10.00;99.90;;;;;;5109309;27;20326;-69
2022/04/30 09:45:26;;;;;;;8.43;6.30;;;10.10;99.90;;;;;;5109572;27;20041;-68
2022/04/30 09:47:53;;;;;;;7.25;6.32;;;10.20;99.90;;;;;;5118569;28;20107;-69
2022/04/30 09:55:53;;;;;;;8.73;6.10;;;10.10;99.90;;;;;;5126514;27;20040;-70
2022/04/30 09:58:34;;;;;;;9.70;6.45;;;10.30;99.90;;;;;;5118725;28;20427;-69
2022/04/30 10:01:00;;;;;;;6.93;5.65;;;10.30;99.90;;;;;;5119115;28;20122;-70
2022/04/30 10:03:29;;;;;;;8.70;5.68;;;10.40;99.90;;;;;;5120573;27;20039;-68
2022/04/30 10:06:00;;;;;;;8.40;5.18;;;10.40;99.90;;;;;;5118582;27;20028;-69
2022/04/30 10:08:39;;;;;;;10.80;5.28;;;10.40;99.90;;;;;;5101690;28;20222;-69
2022/04/30 10:11:39;;;;;;;6.78;5.10;;;10.50;99.90;;;;;;5134627;27;20039;-68
2022/04/30 10:14:30;;;;;;;7.78;5.00;;;10.50;99.90;;;;;;5116137;27;20052;-69
2022/04/30 10:20:21;;;;;;;6.80;5.07;;;10.30;99.90;;;;;;5107209;27;20075;-69
2022/04/30 10:22:58;;;;;;;6.55;4.85;;;10.50;99.90;;;;;;5123111;27;20031;-69
2022/04/30 10:25:44;;;;;;;9.32;5.18;;;10.60;99.90;;;;;;5127824;27;20071;-69
2022/04/30 10:28:18;;;;;;;7.57;4.88;;;10.50;99.90;;;;;;5121749;27;20098;-68
2022/04/30 10:30:46;;;;;;;6.10;4.88;;;10.50;99.90;;;;;;5135223;27;20270;-69
2022/04/30 10:33:12;;;;;;;8.05;4.65;;;10.40;99.90;;;;;;5134804;27;20085;-68
2022/04/30 10:35:45;;;;;;;6.28;4.93;;;10.50;99.90;;;;;;5120635;27;20035;-68
2022/04/30 10:38:12;;;;;;;8.68;4.60;;;10.60;99.90;;;;;;5125139;27;20058;-69
2022/04/30 10:40:47;;;;;;;7.72;4.65;;;10.70;99.90;;;;;;5126505;27;20094;-68
2022/04/30 10:43:37;;;;;;;;;;;10.50;99.90;;;;;;5140432;27;20110;-68
2022/04/30 10:46:23;;;;;;;9.07;4.60;;;10.50;99.90;;;;;;5121878;27;20159;-68
2022/04/30 10:48:50;;;;;;;7.22;4.28;;;10.70;99.90;;;;;;5103953;27;20089;-69
2022/04/30 10:51:31;;;;;;;5.55;4.63;;;10.70;99.90;;;;;;5123192;27;20140;-69
2022/04/30 10:53:59;;;;;;;7.15;4.30;;;10.60;99.90;;;;;;5120933;27;20260;-68
2022/04/30 10:56:27;;;;;;;6.00;5.05;;;10.80;99.90;;;;;;5125452;27;20072;-69
2022/04/30 10:58:53;;;;;;;6.22;4.75;;;10.80;99.90;;;;;;5136493;27;20039;-69
2022/04/30 11:01:20;;;;;;;10.25;4.22;;;10.80;99.90;;;;;;5123896;27;20159;-69
2022/04/30 11:03:50;;;;;;;5.13;3.78;;;10.80;99.90;;;;;;5129227;27;20030;-68
2022/04/30 11:06:46;;;;;;;5.88;4.03;;;10.90;99.90;;;;;;5121276;27;20369;-69
2022/04/30 11:09:21;;;;;;;5.57;4.15;;;10.90;99.90;;;;;;5112639;27;20365;-70
2022/04/30 11:11:50;;;;;;;;;;;10.80;99.90;;;;;;5108846;27;20058;-69
2022/04/30 11:14:16;;;;;;;7.20;4.68;;;10.60;99.90;;;;;;5117538;27;19926;-70
2022/04/30 11:16:49;;;;;;;5.13;4.05;;;10.70;99.90;;;;;;5140773;27;20094;-69
2022/04/30 11:19:21;;;;;;;6.10;4.18;;;10.80;99.90;;;;;;5111559;27;20334;-70
2022/04/30 11:21:48;;;;;;;5.88;4.15;;;10.70;99.90;;;;;;5130360;27;20038;-70
2022/04/30 11:24:21;;;;;;;5.80;3.97;;;10.80;99.90;;;;;;5120220;27;20109;-70
2022/04/30 11:26:47;;;;;;;5.25;4.20;;;10.80;99.90;;;;;;5111770;27;20046;-70
2022/04/30 11:29:14;;;;;;;7.00;4.50;;;10.80;99.90;;;;;;5105886;27;20047;-71
2022/04/30 11:31:42;;;;;;;8.02;4.65;;;10.70;99.90;;;;;;5102760;27;20116;-70
2022/04/30 11:34:17;;;;;;;4.32;3.90;;;10.80;99.90;;;;;;5086560;27;20330;-69
2022/04/30 11:36:54;;;;;;;6.18;4.15;;;10.90;99.90;;;;;;5117458;27;20296;-70
2022/04/30 11:39:21;;;;;;;5.93;4.50;;;11.10;99.90;;;;;;5105642;27;20089;-69
2022/04/30 11:41:54;;;;;;;7.25;4.60;;;11.10;99.90;;;;;;5106284;27;20406;-70
2022/04/30 11:44:22;;;;;;;9.05;4.68;;;11.10;99.90;;;;;;5123528;27;20091;-70
2022/04/30 11:47:19;;;;;;;7.30;4.43;;;11.20;99.90;;;;;;5124671;27;20345;-69
2022/04/30 11:50:12;;;;;;;;;;;11.40;99.90;;;;;;5106133;27;20352;-70
2022/04/30 11:52:38;;;;;;;4.90;4.38;;;11.50;99.90;;;;;;5119719;27;19919;-69
2022/04/30 11:55:06;;;;;;;8.98;4.90;;;11.60;99.90;;;;;;5103144;27;20043;-71
2022/04/30 11:57:34;;;;;;;6.10;4.25;;;11.60;99.90;;;;;;5121228;27;20042;-70
2022/04/30 12:00:02;;;;;;;4.57;3.92;;;11.60;99.90;;;;;;5140278;27;20049;-70
2022/04/30 12:02:30;;;;;;;7.57;4.25;;;11.70;99.90;;;;;;5106675;27;20045;-69
2022/04/30 12:05:04;;;;;;;7.57;4.28;;;11.80;99.90;;;;;;5122920;27;20331;-70
2022/04/30 12:07:41;;;;;;;5.60;4.53;;;11.80;99.90;;;;;;5138662;27;20046;-71
2022/04/30 12:10:28;;;;;;;6.28;5.10;;;11.90;99.90;;;;;;5119057;27;20060;-69
2022/04/30 12:12:54;;;;;;;5.05;3.90;;;11.90;99.90;;;;;;5121688;27;20112;-70
2022/04/30 12:15:21;;;;;;;6.93;4.20;;;11.80;99.90;;;;;;5118779;27;20230;-70
2022/04/30 12:24:40;;;;;;;6.85;4.32;;;12.10;99.90;;;;;;5132888;27;20358;-69
2022/04/30 12:26:13;;;;;;;4.75;3.53;;;12.40;99.90;;;;;;5118751;27;20035;-70
2022/04/30 12:28:52;;;;;;;5.78;3.58;;;12.40;99.90;;;;;;5125599;27;20050;-70
2022/04/30 12:31:19;;;;;;;5.72;3.58;;;12.40;99.90;;;;;;5102531;27;20031;-70
2022/04/30 12:33:48;;;;;;;4.82;3.75;;;12.60;99.90;;;;;;5102743;27;20043;-70
2022/04/30 12:36:15;;;;;;;5.18;3.40;;;12.60;99.90;;;;;;5110771;27;20030;-69
2022/04/30 12:38:55;;;;;;;5.85;3.75;;;12.80;99.90;;;;;;5129602;27;20050;-70
2022/04/30 12:41:37;;;;;;;5.35;3.85;;;12.80;99.90;;;;;;5118843;27;20045;-70
2022/04/30 12:44:05;;;;;;;4.13;3.30;;;12.90;99.90;;;;;;5118815;28;20046;-70
2022/04/30 12:49:28;;;;;;;6.60;3.38;;;12.80;99.90;;;;;;5127851;27;20217;-70
2022/04/30 12:52:02;;;;;;;5.05;2.95;;;12.80;99.90;;;;;;5101496;27;20062;-70
2022/04/30 12:54:33;;;;;;;3.88;2.97;;;13.10;99.90;;;;;;5115193;27;20035;-70
2022/04/30 12:57:07;;;;;;;5.07;2.78;;;12.90;99.90;;;;;;5117455;27;20030;-70
2022/04/30 12:59:56;;;;;;;;;;;13.00;99.90;;;;;;5142240;27;20069;-70
2022/04/30 13:02:32;;;;;;;;;;;;;;;;;;;;;
2022/04/30 13:05:04;;;;;;;4.95;3.72;;;12.80;99.90;;;;;;5127798;27;20045;-70
2022/04/30 13:07:30;;;;;;;4.35;3.85;;;12.80;99.90;;;;;;5106263;27;20039;-70
2022/04/30 13:15:27;;;;;;;5.68;3.65;;;12.60;99.90;;;;;;5119868;28;20083;-70
2022/04/30 13:17:55;;;;;;;5.65;3.60;;;12.40;99.90;;;;;;5129378;27;20053;-70
2022/04/30 13:20:22;;;;;;;6.97;3.58;;;12.60;99.90;;;;;;5112614;28;20338;-70
2022/04/30 13:22:51;;;;;;;6.88;3.63;;;12.60;99.90;;;;;;5118409;27;20027;-69
2022/04/30 13:28:50;;;;;;;4.97;3.30;;;12.50;99.90;;;;;;5130721;27;20043;-69
2022/04/30 13:31:25;;;;;;;4.00;3.28;;;12.50;99.90;;;;;;5097640;28;20074;-70
2022/04/30 13:33:53;;;;;;;8.75;3.60;;;12.60;99.90;;;;;;5102012;28;20318;-70
2022/04/30 13:36:20;;;;;;;5.50;3.10;;;12.50;99.90;;;;;;5102162;28;20244;-70
2022/04/30 13:38:45;;;;;;;4.72;3.38;;;12.50;99.90;;;;;;5112870;27;20039;-69
2022/04/30 13:41:11;;;;;;;5.22;3.40;;;12.60;99.90;;;;;;5104507;27;20070;-70
2022/04/30 13:43:37;;;;;;;4.60;4.05;;;12.80;99.90;;;;;;5122816;27;20062;-70
2022/04/30 13:46:02;;;;;;;6.32;4.32;;;12.30;99.90;;;;;;5139576;27;20043;-70
2022/04/30 13:48:28;;;;;;;7.10;4.68;;;12.30;99.90;;;;;;5135721;27;20092;-70
2022/04/30 13:50:54;;;;;;;5.35;3.90;;;12.40;99.90;;;;;;5120177;27;20035;-69
2022/04/30 13:53:20;;;;;;;5.25;3.92;;;12.10;99.90;;;;;;5119318;28;20216;-69
2022/04/30 13:55:49;;;;;;;7.28;4.70;;;11.90;99.90;;;;;;5101612;28;20084;-69
2022/04/30 13:58:14;;;;;;;7.07;4.47;;;12.10;99.90;;;;;;5119996;27;20036;-70
2022/04/30 14:00:40;;;;;;;6.70;4.30;;;12.20;99.90;;;;;;5101875;27;20073;-70
2022/04/30 14:03:06;;;;;;;6.00;5.10;;;12.00;99.90;;;;;;5118679;28;20034;-71
2022/04/30 14:05:33;;;;;;;6.85;4.22;;;12.10;99.90;;;;;;5118357;28;20134;-70
2022/04/30 14:08:04;;;;;;;6.28;4.60;;;12.00;99.90;;;;;;5117894;28;20100;-69
2022/04/30 14:10:30;;;;;;;6.07;4.68;;;11.90;99.90;;;;;;5118739;28;20047;-70
2022/04/30 14:15:40;;;;;;;6.32;5.07;;;11.80;99.90;;;;;;5137356;27;20047;-69